sensor_id;sensor_type;location;lat;lon;timestamp;P1;durP1;ratioP1;P2;durP2;ratioP2
48765;SDS011;34570;51.836;5.002;2022-07-24T00:00:37;14.88;;;8.50;;
48765;SDS011;34570;51.836;5.002;2022-07-24T00:03:03;14.30;;;7.68;;
48765;SDS011;34570;51.836;5.002;2022-07-24T00:05:28;12.77;;;7.80;;
48765;SDS011;34570;51.836;5.002;2022-07-24T00:07:54;14.02;;;8.02;;
48765;SDS011;34570;51.836;5.002;2022-07-24T00:10:19;15.02;;;7.50;;
48765;SDS011;34570;51.836;5.002;2022-07-24T00:12:45;12.18;;;7.05;;
48765;SDS011;34570;51.836;5.002;2022-07-24T00:15:10;11.43;;;7.68;;
48765;SDS011;34570;51.836;5.002;2022-07-24T00:17:36;12.40;;;7.72;;
48765;SDS011;34570;51.836;5.002;2022-07-24T00:20:03;13.30;;;7.72;;
48765;SDS011;34570;51.836;5.002;2022-07-24T00:22:28;17.95;;;9.13;;
48765;SDS011;34570;51.836;5.002;2022-07-24T00:24:54;16.85;;;8.93;;
48765;SDS011;34570;51.836;5.002;2022-07-24T00:27:20;17.33;;;8.48;;
48765;SDS011;34570;51.836;5.002;2022-07-24T00:29:46;14.75;;;9.50;;
48765;SDS011;34570;51.836;5.002;2022-07-24T00:32:11;12.10;;;8.57;;
48765;SDS011;34570;51.836;5.002;2022-07-24T00:34:37;15.13;;;9.00;;
48765;SDS011;34570;51.836;5.002;2022-07-24T00:37:03;16.15;;;9.50;;
48765;SDS011;34570;51.836;5.002;2022-07-24T00:39:28;16.48;;;9.95;;
48765;SDS011;34570;51.836;5.002;2022-07-24T00:41:53;17.88;;;10.55;;
48765;SDS011;34570;51.836;5.002;2022-07-24T00:44:19;15.43;;;9.82;;
48765;SDS011;34570;51.836;5.002;2022-07-24T00:46:45;21.13;;;9.65;;
48765;SDS011;34570;51.836;5.002;2022-07-24T00:49:12;15.30;;;10.20;;
48765;SDS011;34570;51.836;5.002;2022-07-24T00:51:39;15.90;;;9.88;;
48765;SDS011;34570;51.836;5.002;2022-07-24T00:54:05;17.80;;;9.85;;
48765;SDS011;34570;51.836;5.002;2022-07-24T00:56:31;18.85;;;10.70;;
48765;SDS011;34570;51.836;5.002;2022-07-24T00:58:57;18.10;;;10.40;;
48765;SDS011;34570;51.836;5.002;2022-07-24T01:01:22;16.35;;;10.57;;
48765;SDS011;34570;51.836;5.002;2022-07-24T01:03:48;18.98;;;10.68;;
48765;SDS011;34570;51.836;5.002;2022-07-24T01:06:14;20.77;;;10.57;;
48765;SDS011;34570;51.836;5.002;2022-07-24T01:08:39;17.85;;;10.75;;
48765;SDS011;34570;51.836;5.002;2022-07-24T01:11:05;15.48;;;9.98;;
48765;SDS011;34570;51.836;5.002;2022-07-24T01:13:38;17.55;;;10.10;;
48765;SDS011;34570;51.836;5.002;2022-07-24T01:16:04;16.00;;;10.18;;
48765;SDS011;34570;51.836;5.002;2022-07-24T01:18:29;17.50;;;11.45;;
48765;SDS011;34570;51.836;5.002;2022-07-24T01:20:55;18.88;;;11.38;;
48765;SDS011;34570;51.836;5.002;2022-07-24T01:23:21;16.45;;;11.38;;
48765;SDS011;34570;51.836;5.002;2022-07-24T01:25:47;16.60;;;10.77;;
48765;SDS011;34570;51.836;5.002;2022-07-24T01:28:12;20.25;;;11.90;;
48765;SDS011;34570;51.836;5.002;2022-07-24T01:30:38;19.75;;;11.82;;
48765;SDS011;34570;51.836;5.002;2022-07-24T01:33:03;17.90;;;11.52;;
48765;SDS011;34570;51.836;5.002;2022-07-24T01:35:29;20.27;;;11.70;;
48765;SDS011;34570;51.836;5.002;2022-07-24T01:37:54;18.08;;;11.45;;
48765;SDS011;34570;51.836;5.002;2022-07-24T01:40:20;19.55;;;11.43;;
48765;SDS011;34570;51.836;5.002;2022-07-24T01:42:46;18.92;;;12.20;;
48765;SDS011;34570;51.836;5.002;2022-07-24T01:45:12;19.20;;;12.50;;
48765;SDS011;34570;51.836;5.002;2022-07-24T01:47:38;24.50;;;13.18;;
48765;SDS011;34570;51.836;5.002;2022-07-24T01:50:04;23.95;;;14.38;;
48765;SDS011;34570;51.836;5.002;2022-07-24T01:52:29;25.55;;;14.23;;
48765;SDS011;34570;51.836;5.002;2022-07-24T01:54:55;23.70;;;13.63;;
48765;SDS011;34570;51.836;5.002;2022-07-24T01:57:20;23.20;;;13.80;;
48765;SDS011;34570;51.836;5.002;2022-07-24T01:59:46;21.02;;;13.18;;
48765;SDS011;34570;51.836;5.002;2022-07-24T02:02:12;24.42;;;14.90;;
48765;SDS011;34570;51.836;5.002;2022-07-24T02:04:37;22.63;;;14.15;;
48765;SDS011;34570;51.836;5.002;2022-07-24T02:07:04;27.52;;;16.73;;
48765;SDS011;34570;51.836;5.002;2022-07-24T02:09:30;27.58;;;17.25;;
48765;SDS011;34570;51.836;5.002;2022-07-24T02:11:55;28.40;;;16.38;;
48765;SDS011;34570;51.836;5.002;2022-07-24T02:14:20;28.83;;;18.00;;
48765;SDS011;34570;51.836;5.002;2022-07-24T02:16:46;30.00;;;18.58;;
48765;SDS011;34570;51.836;5.002;2022-07-24T02:19:12;28.40;;;16.38;;
48765;SDS011;34570;51.836;5.002;2022-07-24T02:21:37;30.65;;;17.38;;
48765;SDS011;34570;51.836;5.002;2022-07-24T02:24:03;31.13;;;17.85;;
48765;SDS011;34570;51.836;5.002;2022-07-24T02:26:28;28.58;;;16.13;;
48765;SDS011;34570;51.836;5.002;2022-07-24T02:28:54;28.27;;;16.25;;
48765;SDS011;34570;51.836;5.002;2022-07-24T02:31:19;29.60;;;16.70;;
48765;SDS011;34570;51.836;5.002;2022-07-24T02:33:45;28.23;;;17.05;;
48765;SDS011;34570;51.836;5.002;2022-07-24T02:36:10;27.25;;;15.88;;
48765;SDS011;34570;51.836;5.002;2022-07-24T02:38:36;29.85;;;16.23;;
48765;SDS011;34570;51.836;5.002;2022-07-24T02:41:01;30.42;;;15.98;;
48765;SDS011;34570;51.836;5.002;2022-07-24T02:43:27;24.73;;;14.18;;
48765;SDS011;34570;51.836;5.002;2022-07-24T02:45:52;25.75;;;14.10;;
48765;SDS011;34570;51.836;5.002;2022-07-24T02:48:18;22.33;;;12.40;;
48765;SDS011;34570;51.836;5.002;2022-07-24T02:50:44;25.15;;;12.02;;
48765;SDS011;34570;51.836;5.002;2022-07-24T02:53:09;21.73;;;11.80;;
48765;SDS011;34570;51.836;5.002;2022-07-24T02:55:35;19.48;;;11.38;;
48765;SDS011;34570;51.836;5.002;2022-07-24T02:58:01;21.45;;;10.90;;
48765;SDS011;34570;51.836;5.002;2022-07-24T03:00:26;22.58;;;12.50;;
48765;SDS011;34570;51.836;5.002;2022-07-24T03:02:52;23.65;;;13.35;;
48765;SDS011;34570;51.836;5.002;2022-07-24T03:05:17;26.13;;;14.10;;
48765;SDS011;34570;51.836;5.002;2022-07-24T03:07:43;23.27;;;13.02;;
48765;SDS011;34570;51.836;5.002;2022-07-24T03:10:09;29.42;;;13.93;;
48765;SDS011;34570;51.836;5.002;2022-07-24T03:12:35;30.08;;;16.17;;
48765;SDS011;34570;51.836;5.002;2022-07-24T03:15:01;30.73;;;15.77;;
48765;SDS011;34570;51.836;5.002;2022-07-24T03:17:27;30.23;;;16.90;;
48765;SDS011;34570;51.836;5.002;2022-07-24T03:19:52;30.17;;;17.45;;
48765;SDS011;34570;51.836;5.002;2022-07-24T03:22:18;32.72;;;18.95;;
48765;SDS011;34570;51.836;5.002;2022-07-24T03:24:45;32.67;;;18.38;;
48765;SDS011;34570;51.836;5.002;2022-07-24T03:27:10;32.55;;;17.25;;
48765;SDS011;34570;51.836;5.002;2022-07-24T03:29:36;38.03;;;20.08;;
48765;SDS011;34570;51.836;5.002;2022-07-24T03:32:01;33.20;;;19.25;;
48765;SDS011;34570;51.836;5.002;2022-07-24T03:34:27;30.48;;;17.85;;
48765;SDS011;34570;51.836;5.002;2022-07-24T03:36:52;39.08;;;18.98;;
48765;SDS011;34570;51.836;5.002;2022-07-24T03:39:18;38.47;;;18.88;;
48765;SDS011;34570;51.836;5.002;2022-07-24T03:41:43;30.60;;;17.13;;
48765;SDS011;34570;51.836;5.002;2022-07-24T03:44:09;35.58;;;19.08;;
48765;SDS011;34570;51.836;5.002;2022-07-24T03:46:34;33.58;;;16.50;;
48765;SDS011;34570;51.836;5.002;2022-07-24T03:49:00;32.22;;;16.75;;
48765;SDS011;34570;51.836;5.002;2022-07-24T03:51:26;27.40;;;15.80;;
48765;SDS011;34570;51.836;5.002;2022-07-24T03:53:51;28.27;;;15.77;;
48765;SDS011;34570;51.836;5.002;2022-07-24T03:56:17;26.35;;;13.60;;
48765;SDS011;34570;51.836;5.002;2022-07-24T03:58:43;25.70;;;13.15;;
48765;SDS011;34570;51.836;5.002;2022-07-24T04:01:08;30.02;;;14.77;;
48765;SDS011;34570;51.836;5.002;2022-07-24T04:03:34;24.92;;;13.05;;
48765;SDS011;34570;51.836;5.002;2022-07-24T04:06:03;24.13;;;13.15;;
48765;SDS011;34570;51.836;5.002;2022-07-24T04:08:29;25.45;;;14.18;;
48765;SDS011;34570;51.836;5.002;2022-07-24T04:10:54;27.77;;;13.82;;
48765;SDS011;34570;51.836;5.002;2022-07-24T04:13:27;28.48;;;14.70;;
48765;SDS011;34570;51.836;5.002;2022-07-24T04:15:54;31.70;;;14.27;;
48765;SDS011;34570;51.836;5.002;2022-07-24T04:18:19;25.83;;;13.90;;
48765;SDS011;34570;51.836;5.002;2022-07-24T04:20:45;26.17;;;13.10;;
48765;SDS011;34570;51.836;5.002;2022-07-24T04:23:10;30.13;;;14.63;;
48765;SDS011;34570;51.836;5.002;2022-07-24T04:25:36;31.00;;;15.23;;
48765;SDS011;34570;51.836;5.002;2022-07-24T04:28:02;31.95;;;15.93;;
48765;SDS011;34570;51.836;5.002;2022-07-24T04:30:27;31.35;;;15.73;;
48765;SDS011;34570;51.836;5.002;2022-07-24T04:32:53;40.58;;;17.55;;
48765;SDS011;34570;51.836;5.002;2022-07-24T04:35:19;39.05;;;17.30;;
48765;SDS011;34570;51.836;5.002;2022-07-24T04:37:44;30.20;;;14.48;;
48765;SDS011;34570;51.836;5.002;2022-07-24T04:40:11;32.30;;;16.75;;
48765;SDS011;34570;51.836;5.002;2022-07-24T04:42:37;34.72;;;17.27;;
48765;SDS011;34570;51.836;5.002;2022-07-24T04:45:02;41.90;;;18.88;;
48765;SDS011;34570;51.836;5.002;2022-07-24T04:47:28;32.88;;;17.58;;
48765;SDS011;34570;51.836;5.002;2022-07-24T04:49:53;44.78;;;20.23;;
48765;SDS011;34570;51.836;5.002;2022-07-24T04:52:19;36.47;;;18.77;;
48765;SDS011;34570;51.836;5.002;2022-07-24T04:54:44;36.80;;;18.65;;
48765;SDS011;34570;51.836;5.002;2022-07-24T04:57:10;36.78;;;17.55;;
48765;SDS011;34570;51.836;5.002;2022-07-24T04:59:35;34.65;;;17.42;;
48765;SDS011;34570;51.836;5.002;2022-07-24T05:02:01;26.73;;;15.50;;
48765;SDS011;34570;51.836;5.002;2022-07-24T05:04:27;27.63;;;14.75;;
48765;SDS011;34570;51.836;5.002;2022-07-24T05:06:53;33.95;;;17.42;;
48765;SDS011;34570;51.836;5.002;2022-07-24T05:09:18;26.70;;;14.50;;
48765;SDS011;34570;51.836;5.002;2022-07-24T05:11:44;30.35;;;15.43;;
48765;SDS011;34570;51.836;5.002;2022-07-24T05:14:09;29.77;;;15.95;;
48765;SDS011;34570;51.836;5.002;2022-07-24T05:16:35;26.30;;;14.80;;
48765;SDS011;34570;51.836;5.002;2022-07-24T05:19:00;33.58;;;16.48;;
48765;SDS011;34570;51.836;5.002;2022-07-24T05:21:26;28.02;;;14.25;;
48765;SDS011;34570;51.836;5.002;2022-07-24T05:23:51;28.23;;;15.15;;
48765;SDS011;34570;51.836;5.002;2022-07-24T05:26:17;26.05;;;13.43;;
48765;SDS011;34570;51.836;5.002;2022-07-24T05:28:42;30.73;;;14.32;;
48765;SDS011;34570;51.836;5.002;2022-07-24T05:31:08;27.13;;;13.85;;
48765;SDS011;34570;51.836;5.002;2022-07-24T05:33:34;27.60;;;13.55;;
48765;SDS011;34570;51.836;5.002;2022-07-24T05:35:59;31.40;;;13.95;;
48765;SDS011;34570;51.836;5.002;2022-07-24T05:38:26;21.98;;;13.15;;
48765;SDS011;34570;51.836;5.002;2022-07-24T05:40:51;23.98;;;12.13;;
48765;SDS011;34570;51.836;5.002;2022-07-24T05:43:17;26.67;;;12.68;;
48765;SDS011;34570;51.836;5.002;2022-07-24T05:45:43;24.58;;;12.68;;
48765;SDS011;34570;51.836;5.002;2022-07-24T05:48:08;21.13;;;12.45;;
48765;SDS011;34570;51.836;5.002;2022-07-24T05:50:34;19.33;;;11.18;;
48765;SDS011;34570;51.836;5.002;2022-07-24T05:52:59;22.27;;;11.50;;
48765;SDS011;34570;51.836;5.002;2022-07-24T05:55:25;21.13;;;10.90;;
48765;SDS011;34570;51.836;5.002;2022-07-24T05:57:51;19.75;;;11.55;;
48765;SDS011;34570;51.836;5.002;2022-07-24T06:00:16;21.58;;;10.75;;
48765;SDS011;34570;51.836;5.002;2022-07-24T06:02:45;19.55;;;10.27;;
48765;SDS011;34570;51.836;5.002;2022-07-24T06:05:11;18.60;;;10.40;;
48765;SDS011;34570;51.836;5.002;2022-07-24T06:07:37;18.55;;;8.80;;
48765;SDS011;34570;51.836;5.002;2022-07-24T06:10:02;14.82;;;8.77;;
48765;SDS011;34570;51.836;5.002;2022-07-24T06:12:28;18.67;;;8.65;;
48765;SDS011;34570;51.836;5.002;2022-07-24T06:14:53;15.38;;;7.70;;
48765;SDS011;34570;51.836;5.002;2022-07-24T06:17:19;16.48;;;7.13;;
48765;SDS011;34570;51.836;5.002;2022-07-24T06:19:44;12.70;;;6.43;;
48765;SDS011;34570;51.836;5.002;2022-07-24T06:22:10;11.27;;;5.97;;
48765;SDS011;34570;51.836;5.002;2022-07-24T06:24:35;11.73;;;5.07;;
48765;SDS011;34570;51.836;5.002;2022-07-24T06:27:01;10.15;;;5.10;;
48765;SDS011;34570;51.836;5.002;2022-07-24T06:29:26;9.50;;;4.80;;
48765;SDS011;34570;51.836;5.002;2022-07-24T06:31:52;9.18;;;4.93;;
48765;SDS011;34570;51.836;5.002;2022-07-24T06:34:17;11.27;;;5.22;;
48765;SDS011;34570;51.836;5.002;2022-07-24T06:36:45;8.00;;;5.22;;
48765;SDS011;34570;51.836;5.002;2022-07-24T06:39:11;7.68;;;4.13;;
48765;SDS011;34570;51.836;5.002;2022-07-24T06:41:36;10.50;;;4.50;;
48765;SDS011;34570;51.836;5.002;2022-07-24T06:44:01;8.82;;;4.07;;
48765;SDS011;34570;51.836;5.002;2022-07-24T06:46:27;7.35;;;3.92;;
48765;SDS011;34570;51.836;5.002;2022-07-24T06:48:53;9.57;;;5.13;;
48765;SDS011;34570;51.836;5.002;2022-07-24T06:51:18;10.07;;;5.32;;
48765;SDS011;34570;51.836;5.002;2022-07-24T06:53:44;13.30;;;5.70;;
48765;SDS011;34570;51.836;5.002;2022-07-24T06:56:12;17.85;;;6.35;;
48765;SDS011;34570;51.836;5.002;2022-07-24T06:58:38;11.93;;;4.93;;
48765;SDS011;34570;51.836;5.002;2022-07-24T07:01:03;15.43;;;7.53;;
48765;SDS011;34570;51.836;5.002;2022-07-24T07:03:29;11.90;;;6.20;;
48765;SDS011;34570;51.836;5.002;2022-07-24T07:05:54;20.70;;;9.73;;
48765;SDS011;34570;51.836;5.002;2022-07-24T07:08:20;10.77;;;4.82;;
48765;SDS011;34570;51.836;5.002;2022-07-24T07:10:45;11.07;;;4.20;;
48765;SDS011;34570;51.836;5.002;2022-07-24T07:13:11;8.43;;;4.63;;
48765;SDS011;34570;51.836;5.002;2022-07-24T07:15:37;3.95;;;2.53;;
48765;SDS011;34570;51.836;5.002;2022-07-24T07:18:02;4.28;;;2.35;;
48765;SDS011;34570;51.836;5.002;2022-07-24T07:20:28;5.28;;;2.28;;
48765;SDS011;34570;51.836;5.002;2022-07-24T07:22:54;5.28;;;2.38;;
48765;SDS011;34570;51.836;5.002;2022-07-24T07:25:19;4.80;;;2.47;;
48765;SDS011;34570;51.836;5.002;2022-07-24T07:27:45;3.47;;;1.83;;
48765;SDS011;34570;51.836;5.002;2022-07-24T07:30:10;4.15;;;2.15;;
48765;SDS011;34570;51.836;5.002;2022-07-24T07:32:37;4.22;;;2.05;;
48765;SDS011;34570;51.836;5.002;2022-07-24T07:35:03;4.50;;;1.73;;
48765;SDS011;34570;51.836;5.002;2022-07-24T07:37:29;3.80;;;1.80;;
48765;SDS011;34570;51.836;5.002;2022-07-24T07:39:54;3.50;;;1.75;;
48765;SDS011;34570;51.836;5.002;2022-07-24T07:42:20;5.60;;;2.03;;
48765;SDS011;34570;51.836;5.002;2022-07-24T07:44:45;4.97;;;1.92;;
48765;SDS011;34570;51.836;5.002;2022-07-24T07:47:11;3.85;;;2.10;;
48765;SDS011;34570;51.836;5.002;2022-07-24T07:49:36;4.25;;;2.10;;
48765;SDS011;34570;51.836;5.002;2022-07-24T07:52:02;4.65;;;1.98;;
48765;SDS011;34570;51.836;5.002;2022-07-24T07:54:27;4.25;;;1.88;;
48765;SDS011;34570;51.836;5.002;2022-07-24T07:56:53;6.05;;;1.95;;
48765;SDS011;34570;51.836;5.002;2022-07-24T07:59:18;4.07;;;2.03;;
48765;SDS011;34570;51.836;5.002;2022-07-24T08:01:44;5.65;;;1.92;;
48765;SDS011;34570;51.836;5.002;2022-07-24T08:04:09;5.57;;;2.10;;
48765;SDS011;34570;51.836;5.002;2022-07-24T08:06:35;3.05;;;1.70;;
48765;SDS011;34570;51.836;5.002;2022-07-24T08:09:00;3.90;;;1.83;;
48765;SDS011;34570;51.836;5.002;2022-07-24T08:11:26;7.03;;;2.35;;
48765;SDS011;34570;51.836;5.002;2022-07-24T08:13:51;5.13;;;2.00;;
48765;SDS011;34570;51.836;5.002;2022-07-24T08:16:17;3.22;;;2.00;;
48765;SDS011;34570;51.836;5.002;2022-07-24T08:18:42;4.00;;;1.90;;
48765;SDS011;34570;51.836;5.002;2022-07-24T08:21:08;3.08;;;1.65;;
48765;SDS011;34570;51.836;5.002;2022-07-24T08:23:34;5.43;;;2.03;;
48765;SDS011;34570;51.836;5.002;2022-07-24T08:25:59;4.07;;;2.00;;
48765;SDS011;34570;51.836;5.002;2022-07-24T08:28:25;3.92;;;1.95;;
48765;SDS011;34570;51.836;5.002;2022-07-24T08:30:50;4.20;;;2.05;;
48765;SDS011;34570;51.836;5.002;2022-07-24T08:33:16;3.85;;;1.75;;
48765;SDS011;34570;51.836;5.002;2022-07-24T08:35:42;3.70;;;1.77;;
48765;SDS011;34570;51.836;5.002;2022-07-24T08:38:08;5.43;;;2.15;;
48765;SDS011;34570;51.836;5.002;2022-07-24T08:40:35;3.60;;;2.03;;
48765;SDS011;34570;51.836;5.002;2022-07-24T08:43:01;3.30;;;1.95;;
48765;SDS011;34570;51.836;5.002;2022-07-24T08:45:27;3.78;;;1.85;;
48765;SDS011;34570;51.836;5.002;2022-07-24T08:47:52;3.28;;;1.70;;
48765;SDS011;34570;51.836;5.002;2022-07-24T08:50:20;5.85;;;1.90;;
48765;SDS011;34570;51.836;5.002;2022-07-24T08:52:45;5.22;;;2.45;;
48765;SDS011;34570;51.836;5.002;2022-07-24T08:55:11;5.63;;;2.20;;
48765;SDS011;34570;51.836;5.002;2022-07-24T08:57:36;3.10;;;1.65;;
48765;SDS011;34570;51.836;5.002;2022-07-24T09:00:02;3.67;;;1.92;;
48765;SDS011;34570;51.836;5.002;2022-07-24T09:02:28;3.38;;;1.88;;
48765;SDS011;34570;51.836;5.002;2022-07-24T09:05:00;2.17;;;1.35;;
48765;SDS011;34570;51.836;5.002;2022-07-24T09:07:27;2.20;;;1.65;;
48765;SDS011;34570;51.836;5.002;2022-07-24T09:12:24;3.60;;;1.55;;
48765;SDS011;34570;51.836;5.002;2022-07-24T09:14:50;2.92;;;1.38;;
48765;SDS011;34570;51.836;5.002;2022-07-24T09:17:17;2.58;;;1.42;;
48765;SDS011;34570;51.836;5.002;2022-07-24T09:19:59;2.90;;;1.52;;
48765;SDS011;34570;51.836;5.002;2022-07-24T09:25:10;3.33;;;1.33;;
48765;SDS011;34570;51.836;5.002;2022-07-24T09:27:37;7.38;;;1.50;;
48765;SDS011;34570;51.836;5.002;2022-07-24T09:30:04;2.85;;;1.77;;
48765;SDS011;34570;51.836;5.002;2022-07-24T09:32:30;2.72;;;1.70;;
48765;SDS011;34570;51.836;5.002;2022-07-24T09:34:55;2.67;;;1.70;;
48765;SDS011;34570;51.836;5.002;2022-07-24T09:37:21;7.90;;;1.80;;
48765;SDS011;34570;51.836;5.002;2022-07-24T09:39:47;4.05;;;1.90;;
48765;SDS011;34570;51.836;5.002;2022-07-24T09:42:12;3.00;;;1.80;;
48765;SDS011;34570;51.836;5.002;2022-07-24T09:44:38;5.10;;;1.67;;
48765;SDS011;34570;51.836;5.002;2022-07-24T09:47:05;3.03;;;1.67;;
48765;SDS011;34570;51.836;5.002;2022-07-24T09:49:31;7.20;;;1.80;;
48765;SDS011;34570;51.836;5.002;2022-07-24T09:54:39;2.90;;;1.52;;
48765;SDS011;34570;51.836;5.002;2022-07-24T09:59:47;2.55;;;1.48;;
48765;SDS011;34570;51.836;5.002;2022-07-24T10:02:13;3.08;;;1.50;;
48765;SDS011;34570;51.836;5.002;2022-07-24T10:04:40;3.00;;;1.58;;
48765;SDS011;34570;51.836;5.002;2022-07-24T10:07:09;5.10;;;2.00;;
48765;SDS011;34570;51.836;5.002;2022-07-24T10:09:35;2.03;;;1.50;;
48765;SDS011;34570;51.836;5.002;2022-07-24T10:12:00;4.25;;;1.38;;
48765;SDS011;34570;51.836;5.002;2022-07-24T10:14:28;3.72;;;1.85;;
48765;SDS011;34570;51.836;5.002;2022-07-24T10:17:16;4.90;;;1.38;;
48765;SDS011;34570;51.836;5.002;2022-07-24T10:19:41;3.90;;;1.38;;
48765;SDS011;34570;51.836;5.002;2022-07-24T10:22:08;2.25;;;1.17;;
48765;SDS011;34570;51.836;5.002;2022-07-24T10:27:32;2.72;;;1.35;;
48765;SDS011;34570;51.836;5.002;2022-07-24T10:29:59;10.90;;;1.55;;
48765;SDS011;34570;51.836;5.002;2022-07-24T10:32:25;3.10;;;1.20;;
48765;SDS011;34570;51.836;5.002;2022-07-24T10:45:29;6.22;;;5.18;;
48765;SDS011;34570;51.836;5.002;2022-07-24T10:47:56;4.25;;;2.40;;
48765;SDS011;34570;51.836;5.002;2022-07-24T10:50:22;11.95;;;5.00;;
48765;SDS011;34570;51.836;5.002;2022-07-24T10:52:47;8.98;;;4.22;;
48765;SDS011;34570;51.836;5.002;2022-07-24T10:57:45;32.42;;;19.17;;
48765;SDS011;34570;51.836;5.002;2022-07-24T11:00:20;3.70;;;2.20;;
48765;SDS011;34570;51.836;5.002;2022-07-24T11:05:27;3.83;;;1.92;;
48765;SDS011;34570;51.836;5.002;2022-07-24T11:10:49;3.45;;;1.08;;
48765;SDS011;34570;51.836;5.002;2022-07-24T11:18:37;2.38;;;1.40;;
48765;SDS011;34570;51.836;5.002;2022-07-24T11:21:03;1.85;;;1.23;;
48765;SDS011;34570;51.836;5.002;2022-07-24T11:23:28;6.28;;;1.35;;
48765;SDS011;34570;51.836;5.002;2022-07-24T11:28:38;3.03;;;1.40;;
48765;SDS011;34570;51.836;5.002;2022-07-24T11:31:04;2.38;;;1.48;;
48765;SDS011;34570;51.836;5.002;2022-07-24T11:33:29;2.92;;;1.30;;
48765;SDS011;34570;51.836;5.002;2022-07-24T11:35:55;2.75;;;1.20;;
48765;SDS011;34570;51.836;5.002;2022-07-24T11:38:27;3.17;;;1.10;;
48765;SDS011;34570;51.836;5.002;2022-07-24T11:40:52;1.83;;;1.10;;
48765;SDS011;34570;51.836;5.002;2022-07-24T11:43:29;1.85;;;1.27;;
48765;SDS011;34570;51.836;5.002;2022-07-24T11:45:54;2.22;;;1.30;;
48765;SDS011;34570;51.836;5.002;2022-07-24T11:48:20;2.28;;;1.33;;
48765;SDS011;34570;51.836;5.002;2022-07-24T11:50:45;2.33;;;1.30;;
48765;SDS011;34570;51.836;5.002;2022-07-24T11:53:11;3.03;;;1.30;;
48765;SDS011;34570;51.836;5.002;2022-07-24T11:55:37;3.30;;;1.25;;
48765;SDS011;34570;51.836;5.002;2022-07-24T11:58:02;3.50;;;1.25;;
48765;SDS011;34570;51.836;5.002;2022-07-24T12:00:28;3.72;;;1.23;;
48765;SDS011;34570;51.836;5.002;2022-07-24T12:02:55;1.40;;;1.05;;
48765;SDS011;34570;51.836;5.002;2022-07-24T12:05:28;2.10;;;1.17;;
48765;SDS011;34570;51.836;5.002;2022-07-24T12:07:54;2.10;;;1.30;;
48765;SDS011;34570;51.836;5.002;2022-07-24T12:10:21;3.08;;;1.42;;
48765;SDS011;34570;51.836;5.002;2022-07-24T12:12:48;2.13;;;1.23;;
48765;SDS011;34570;51.836;5.002;2022-07-24T12:15:14;2.67;;;1.08;;
48765;SDS011;34570;51.836;5.002;2022-07-24T12:22:49;2.63;;;0.85;;
48765;SDS011;34570;51.836;5.002;2022-07-24T12:25:15;2.80;;;1.20;;
48765;SDS011;34570;51.836;5.002;2022-07-24T12:27:42;2.97;;;1.17;;
48765;SDS011;34570;51.836;5.002;2022-07-24T12:32:56;1.90;;;1.10;;
48765;SDS011;34570;51.836;5.002;2022-07-24T12:35:22;1.80;;;0.93;;
48765;SDS011;34570;51.836;5.002;2022-07-24T12:37:48;3.40;;;1.40;;
48765;SDS011;34570;51.836;5.002;2022-07-24T12:42:55;2.08;;;1.23;;
48765;SDS011;34570;51.836;5.002;2022-07-24T12:45:20;6.32;;;1.38;;
48765;SDS011;34570;51.836;5.002;2022-07-24T12:53:25;2.75;;;1.20;;
48765;SDS011;34570;51.836;5.002;2022-07-24T12:56:10;1.70;;;0.90;;
48765;SDS011;34570;51.836;5.002;2022-07-24T13:01:17;2.10;;;0.93;;
48765;SDS011;34570;51.836;5.002;2022-07-24T13:03:42;2.30;;;0.80;;
48765;SDS011;34570;51.836;5.002;2022-07-24T13:06:08;4.53;;;1.13;;
48765;SDS011;34570;51.836;5.002;2022-07-24T13:08:34;3.65;;;0.88;;
48765;SDS011;34570;51.836;5.002;2022-07-24T13:10:59;11.23;;;1.15;;
48765;SDS011;34570;51.836;5.002;2022-07-24T13:13:25;3.10;;;1.00;;
48765;SDS011;34570;51.836;5.002;2022-07-24T13:15:50;3.33;;;1.38;;
48765;SDS011;34570;51.836;5.002;2022-07-24T13:18:16;2.63;;;1.27;;
48765;SDS011;34570;51.836;5.002;2022-07-24T13:20:41;2.38;;;1.08;;
48765;SDS011;34570;51.836;5.002;2022-07-24T13:23:07;1.77;;;0.95;;
48765;SDS011;34570;51.836;5.002;2022-07-24T13:25:32;1.88;;;1.10;;
48765;SDS011;34570;51.836;5.002;2022-07-24T13:27:58;2.33;;;1.00;;
48765;SDS011;34570;51.836;5.002;2022-07-24T13:30:23;1.50;;;0.88;;
48765;SDS011;34570;51.836;5.002;2022-07-24T13:32:49;1.40;;;0.90;;
48765;SDS011;34570;51.836;5.002;2022-07-24T13:35:14;1.63;;;1.00;;
48765;SDS011;34570;51.836;5.002;2022-07-24T13:37:40;1.60;;;0.90;;
48765;SDS011;34570;51.836;5.002;2022-07-24T13:40:06;2.35;;;0.90;;
48765;SDS011;34570;51.836;5.002;2022-07-24T13:42:32;2.22;;;0.85;;
48765;SDS011;34570;51.836;5.002;2022-07-24T13:44:58;3.28;;;1.25;;
48765;SDS011;34570;51.836;5.002;2022-07-24T13:47:24;1.73;;;0.98;;
48765;SDS011;34570;51.836;5.002;2022-07-24T13:49:49;2.60;;;1.02;;
48765;SDS011;34570;51.836;5.002;2022-07-24T13:52:15;2.00;;;1.08;;
48765;SDS011;34570;51.836;5.002;2022-07-24T13:54:40;2.58;;;0.90;;
48765;SDS011;34570;51.836;5.002;2022-07-24T13:57:07;2.00;;;1.10;;
48765;SDS011;34570;51.836;5.002;2022-07-24T13:59:32;2.08;;;1.00;;
48765;SDS011;34570;51.836;5.002;2022-07-24T14:01:58;4.10;;;1.20;;
48765;SDS011;34570;51.836;5.002;2022-07-24T14:04:23;1.90;;;1.00;;
48765;SDS011;34570;51.836;5.002;2022-07-24T14:06:49;4.93;;;1.00;;
48765;SDS011;34570;51.836;5.002;2022-07-24T14:09:14;3.70;;;1.38;;
48765;SDS011;34570;51.836;5.002;2022-07-24T14:11:40;2.10;;;1.20;;
48765;SDS011;34570;51.836;5.002;2022-07-24T14:14:06;2.85;;;1.00;;
48765;SDS011;34570;51.836;5.002;2022-07-24T14:16:32;2.40;;;1.00;;
48765;SDS011;34570;51.836;5.002;2022-07-24T14:18:58;4.45;;;1.08;;
48765;SDS011;34570;51.836;5.002;2022-07-24T14:21:23;2.60;;;0.90;;
48765;SDS011;34570;51.836;5.002;2022-07-24T14:23:49;3.15;;;0.85;;
48765;SDS011;34570;51.836;5.002;2022-07-24T14:26:14;4.55;;;0.90;;
48765;SDS011;34570;51.836;5.002;2022-07-24T14:28:40;2.50;;;1.00;;
48765;SDS011;34570;51.836;5.002;2022-07-24T14:31:06;1.80;;;0.90;;
48765;SDS011;34570;51.836;5.002;2022-07-24T14:33:32;2.58;;;0.93;;
48765;SDS011;34570;51.836;5.002;2022-07-24T14:35:59;2.15;;;1.10;;
48765;SDS011;34570;51.836;5.002;2022-07-24T14:38:25;1.58;;;1.00;;
48765;SDS011;34570;51.836;5.002;2022-07-24T14:40:50;1.70;;;0.93;;
48765;SDS011;34570;51.836;5.002;2022-07-24T14:43:15;2.22;;;1.00;;
48765;SDS011;34570;51.836;5.002;2022-07-24T14:45:41;2.28;;;1.00;;
48765;SDS011;34570;51.836;5.002;2022-07-24T14:48:06;5.63;;;1.10;;
48765;SDS011;34570;51.836;5.002;2022-07-24T14:50:32;3.35;;;0.90;;
48765;SDS011;34570;51.836;5.002;2022-07-24T14:52:57;2.03;;;0.90;;
48765;SDS011;34570;51.836;5.002;2022-07-24T14:55:23;1.92;;;1.05;;
48765;SDS011;34570;51.836;5.002;2022-07-24T14:57:48;2.22;;;1.13;;
48765;SDS011;34570;51.836;5.002;2022-07-24T15:00:14;1.75;;;0.93;;
48765;SDS011;34570;51.836;5.002;2022-07-24T15:02:40;1.48;;;0.93;;
48765;SDS011;34570;51.836;5.002;2022-07-24T15:05:05;1.55;;;0.88;;
48765;SDS011;34570;51.836;5.002;2022-07-24T15:07:31;2.25;;;1.13;;
48765;SDS011;34570;51.836;5.002;2022-07-24T15:09:56;2.45;;;1.13;;
48765;SDS011;34570;51.836;5.002;2022-07-24T15:12:22;1.85;;;0.80;;
48765;SDS011;34570;51.836;5.002;2022-07-24T15:14:48;1.48;;;0.98;;
48765;SDS011;34570;51.836;5.002;2022-07-24T15:17:14;2.50;;;1.02;;
48765;SDS011;34570;51.836;5.002;2022-07-24T15:19:40;2.00;;;0.95;;
48765;SDS011;34570;51.836;5.002;2022-07-24T15:22:05;2.85;;;0.98;;
48765;SDS011;34570;51.836;5.002;2022-07-24T15:24:31;1.60;;;0.70;;
48765;SDS011;34570;51.836;5.002;2022-07-24T15:26:56;2.42;;;0.90;;